sensor_id;sensor_type;location;lat;lon;timestamp;pressure;altitude;pressure_sealevel;temperature;humidity
36222;BME280;22266;52.340;4.962;2023-07-13T00:00:09;101286.09;;;18.73;74.48
36222;BME280;22266;52.340;4.962;2023-07-13T00:02:39;101289.66;;;18.73;74.46
36222;BME280;22266;52.340;4.962;2023-07-13T00:05:06;101284.44;;;18.72;74.75
36222;BME280;22266;52.340;4.962;2023-07-13T00:07:34;101286.31;;;18.71;74.64
36222;BME280;22266;52.340;4.962;2023-07-13T00:10:02;101278.38;;;18.70;74.55
36222;BME280;22266;52.340;4.962;2023-07-13T00:12:33;101273.75;;;18.70;74.65
36222;BME280;22266;52.340;4.962;2023-07-13T00:15:04;101282.38;;;18.67;74.83
36222;BME280;22266;52.340;4.962;2023-07-13T00:17:32;101279.06;;;18.65;74.83
36222;BME280;22266;52.340;4.962;2023-07-13T00:19:58;101283.44;;;18.66;75.03
36222;BME280;22266;52.340;4.962;2023-07-13T00:22:25;101279.88;;;18.66;74.90
36222;BME280;22266;52.340;4.962;2023-07-13T00:24:53;101278.44;;;18.63;74.93
36222;BME280;22266;52.340;4.962;2023-07-13T00:27:22;101287.97;;;18.61;75.00
36222;BME280;22266;52.340;4.962;2023-07-13T00:29:49;101289.84;;;18.60;74.89
36222;BME280;22266;52.340;4.962;2023-07-13T00:32:17;101285.69;;;18.58;74.83
36222;BME280;22266;52.340;4.962;2023-07-13T00:34:43;101286.78;;;18.57;74.82
36222;BME280;22266;52.340;4.962;2023-07-13T00:37:10;101288.69;;;18.56;75.08
36222;BME280;22266;52.340;4.962;2023-07-13T00:39:37;101289.72;;;18.55;75.01
36222;BME280;22266;52.340;4.962;2023-07-13T00:42:08;101287.00;;;18.55;75.16
36222;BME280;22266;52.340;4.962;2023-07-13T00:44:34;101284.50;;;18.53;75.21
36222;BME280;22266;52.340;4.962;2023-07-13T00:47:01;101290.78;;;18.54;74.99
36222;BME280;22266;52.340;4.962;2023-07-13T00:49:30;101294.59;;;18.53;75.17
36222;BME280;22266;52.340;4.962;2023-07-13T00:52:03;101298.38;;;18.52;75.12
36222;BME280;22266;52.340;4.962;2023-07-13T00:54:35;101289.38;;;18.51;75.23
36222;BME280;22266;52.340;4.962;2023-07-13T00:57:06;101286.06;;;18.49;75.31
36222;BME280;22266;52.340;4.962;2023-07-13T00:59:35;101277.28;;;18.47;75.32
36222;BME280;22266;52.340;4.962;2023-07-13T01:02:03;101276.44;;;18.47;75.49
36222;BME280;22266;52.340;4.962;2023-07-13T01:04:30;101280.22;;;18.46;75.50
36222;BME280;22266;52.340;4.962;2023-07-13T01:06:57;101279.66;;;18.44;75.32
36222;BME280;22266;52.340;4.962;2023-07-13T01:09:26;101282.59;;;18.42;75.55
36222;BME280;22266;52.340;4.962;2023-07-13T01:11:53;101291.84;;;18.41;75.72
36222;BME280;22266;52.340;4.962;2023-07-13T01:14:20;101301.56;;;18.37;75.76
36222;BME280;22266;52.340;4.962;2023-07-13T01:16:47;101298.25;;;18.35;75.92
36222;BME280;22266;52.340;4.962;2023-07-13T01:19:37;101291.38;;;18.33;75.11
36222;BME280;22266;52.340;4.962;2023-07-13T01:22:10;101300.25;;;18.28;75.08
36222;BME280;22266;52.340;4.962;2023-07-13T01:24:39;101295.00;;;18.26;75.34
36222;BME280;22266;52.340;4.962;2023-07-13T01:27:08;101289.81;;;18.25;75.02
36222;BME280;22266;52.340;4.962;2023-07-13T01:29:36;101298.44;;;18.22;75.32
36222;BME280;22266;52.340;4.962;2023-07-13T01:32:14;101291.81;;;18.18;74.98
36222;BME280;22266;52.340;4.962;2023-07-13T01:34:41;101290.97;;;18.17;75.18
36222;BME280;22266;52.340;4.962;2023-07-13T01:37:11;101289.31;;;18.16;74.87
36222;BME280;22266;52.340;4.962;2023-07-13T01:39:39;101301.28;;;18.15;75.18
36222;BME280;22266;52.340;4.962;2023-07-13T01:42:06;101300.69;;;18.13;75.02
36222;BME280;22266;52.340;4.962;2023-07-13T01:44:32;101302.81;;;18.11;74.76
36222;BME280;22266;52.340;4.962;2023-07-13T01:47:01;101311.22;;;18.10;74.55
36222;BME280;22266;52.340;4.962;2023-07-13T01:49:27;101307.91;;;18.08;74.64
36222;BME280;22266;52.340;4.962;2023-07-13T01:51:54;101304.34;;;18.07;74.77
36222;BME280;22266;52.340;4.962;2023-07-13T01:54:21;101301.84;;;18.06;74.35
36222;BME280;22266;52.340;4.962;2023-07-13T01:56:49;101305.63;;;18.04;74.68
36222;BME280;22266;52.340;4.962;2023-07-13T01:59:16;101307.16;;;18.00;74.41
36222;BME280;22266;52.340;4.962;2023-07-13T02:01:42;101315.34;;;18.00;74.48
36222;BME280;22266;52.340;4.962;2023-07-13T02:04:09;101314.72;;;17.98;74.38
36222;BME280;22266;52.340;4.962;2023-07-13T02:06:37;101312.25;;;17.97;74.14
36222;BME280;22266;52.340;4.962;2023-07-13T02:09:03;101318.50;;;17.97;74.25
36222;BME280;22266;52.340;4.962;2023-07-13T02:11:30;101308.94;;;17.95;74.19
36222;BME280;22266;52.340;4.962;2023-07-13T02:14:00;101319.22;;;17.93;74.09
36222;BME280;22266;52.340;4.962;2023-07-13T02:16:29;101320.28;;;17.92;74.72
36222;BME280;22266;52.340;4.962;2023-07-13T02:18:55;101322.41;;;17.90;74.39
36222;BME280;22266;52.340;4.962;2023-07-13T02:21:22;101324.53;;;17.88;74.53
36222;BME280;22266;52.340;4.962;2023-07-13T02:23:51;101321.19;;;17.86;74.64
36222;BME280;22266;52.340;4.962;2023-07-13T02:26:19;101317.88;;;17.84;74.51
36222;BME280;22266;52.340;4.962;2023-07-13T02:28:48;101323.34;;;17.84;74.52
36222;BME280;22266;52.340;4.962;2023-07-13T02:31:15;101329.00;;;17.82;74.20
36222;BME280;22266;52.340;4.962;2023-07-13T02:33:42;101334.69;;;17.81;74.05
36222;BME280;22266;52.340;4.962;2023-07-13T02:36:10;101326.13;;;17.77;74.30
36222;BME280;22266;52.340;4.962;2023-07-13T02:38:38;101312.75;;;17.75;74.49
36222;BME280;22266;52.340;4.962;2023-07-13T02:41:06;101317.38;;;17.75;74.20
36222;BME280;22266;52.340;4.962;2023-07-13T02:43:33;101318.63;;;17.72;74.18
36222;BME280;22266;52.340;4.962;2023-07-13T02:46:00;101323.25;;;17.72;74.09
36222;BME280;22266;52.340;4.962;2023-07-13T02:48:35;101320.97;;;17.69;74.13
36222;BME280;22266;52.340;4.962;2023-07-13T02:51:02;101320.97;;;17.69;74.11
36222;BME280;22266;52.340;4.962;2023-07-13T02:53:29;101320.38;;;17.67;74.35
36222;BME280;22266;52.340;4.962;2023-07-13T02:55:56;101328.06;;;17.70;74.23
36222;BME280;22266;52.340;4.962;2023-07-13T02:58:22;101327.88;;;17.71;74.46
36222;BME280;22266;52.340;4.962;2023-07-13T03:00:49;101326.78;;;17.72;74.36
36222;BME280;22266;52.340;4.962;2023-07-13T03:03:16;101318.88;;;17.71;73.95
36222;BME280;22266;52.340;4.962;2023-07-13T03:05:44;101326.22;;;17.70;73.97
36222;BME280;22266;52.340;4.962;2023-07-13T03:08:21;101331.88;;;17.69;74.49
36222;BME280;22266;52.340;4.962;2023-07-13T03:10:49;101323.13;;;17.67;74.40
36222;BME280;22266;52.340;4.962;2023-07-13T03:13:15;101328.78;;;17.65;74.09
36222;BME280;22266;52.340;4.962;2023-07-13T03:15:42;101327.34;;;17.63;74.51
36222;BME280;22266;52.340;4.962;2023-07-13T03:18:08;101331.34;;;17.60;74.17
36222;BME280;22266;52.340;4.962;2023-07-13T03:20:35;101330.16;;;17.56;74.22
36222;BME280;22266;52.340;4.962;2023-07-13T03:23:02;101335.22;;;17.52;74.28
36222;BME280;22266;52.340;4.962;2023-07-13T03:25:30;101334.63;;;17.50;74.53
36222;BME280;22266;52.340;4.962;2023-07-13T03:27:59;101341.09;;;17.49;74.17
36222;BME280;22266;52.340;4.962;2023-07-13T03:30:26;101334.25;;;17.47;74.27
36222;BME280;22266;52.340;4.962;2023-07-13T03:32:53;101344.31;;;17.46;74.17
36222;BME280;22266;52.340;4.962;2023-07-13T03:35:20;101332.56;;;17.46;73.90
36222;BME280;22266;52.340;4.962;2023-07-13T03:37:47;101330.09;;;17.44;73.93
36222;BME280;22266;52.340;4.962;2023-07-13T03:40:18;101333.63;;;17.45;73.96
36222;BME280;22266;52.340;4.962;2023-07-13T03:42:45;101331.97;;;17.44;74.25
36222;BME280;22266;52.340;4.962;2023-07-13T03:45:14;101341.41;;;17.41;74.46
36222;BME280;22266;52.340;4.962;2023-07-13T03:47:41;101345.19;;;17.40;74.42
36222;BME280;22266;52.340;4.962;2023-07-13T03:50:08;101334.56;;;17.39;74.36
36222;BME280;22266;52.340;4.962;2023-07-13T03:52:34;101341.66;;;17.40;74.79
36222;BME280;22266;52.340;4.962;2023-07-13T03:55:01;101340.00;;;17.39;74.26
36222;BME280;22266;52.340;4.962;2023-07-13T03:57:27;101339.16;;;17.38;74.39
36222;BME280;22266;52.340;4.962;2023-07-13T03:59:56;101340.81;;;17.39;74.43
36222;BME280;22266;52.340;4.962;2023-07-13T04:02:23;101335.97;;;17.41;74.40
36222;BME280;22266;52.340;4.962;2023-07-13T04:04:49;101341.41;;;17.41;74.62
36222;BME280;22266;52.340;4.962;2023-07-13T04:07:16;101338.69;;;17.41;74.69
36222;BME280;22266;52.340;4.962;2023-07-13T04:09:42;101347.09;;;17.40;74.51
36222;BME280;22266;52.340;4.962;2023-07-13T04:12:09;101349.81;;;17.40;74.75
36222;BME280;22266;52.340;4.962;2023-07-13T04:14:37;101353.59;;;17.39;74.89
36222;BME280;22266;52.340;4.962;2023-07-13T04:17:04;101346.47;;;17.38;74.61
36222;BME280;22266;52.340;4.962;2023-07-13T04:19:31;101357.84;;;17.35;74.70
36222;BME280;22266;52.340;4.962;2023-07-13T04:21:57;101354.06;;;17.36;74.74
36222;BME280;22266;52.340;4.962;2023-07-13T04:24:24;101358.44;;;17.37;74.67
36222;BME280;22266;52.340;4.962;2023-07-13T04:26:50;101358.44;;;17.37;74.49
36222;BME280;22266;52.340;4.962;2023-07-13T04:29:17;101354.63;;;17.38;74.70
36222;BME280;22266;52.340;4.962;2023-07-13T04:31:43;101358.22;;;17.38;74.82
36222;BME280;22266;52.340;4.962;2023-07-13T04:34:10;101369.09;;;17.38;74.74
36222;BME280;22266;52.340;4.962;2023-07-13T04:36:36;101363.66;;;17.38;74.68
36222;BME280;22266;52.340;4.962;2023-07-13T04:39:03;101363.44;;;17.40;74.98
36222;BME280;22266;52.340;4.962;2023-07-13T04:41:30;101376.22;;;17.39;75.18
36222;BME280;22266;52.340;4.962;2023-07-13T04:43:57;101375.38;;;17.39;74.86
36222;BME280;22266;52.340;4.962;2023-07-13T04:46:23;101375.81;;;17.36;75.02
36222;BME280;22266;52.340;4.962;2023-07-13T04:48:50;101383.16;;;17.35;75.43
36222;BME280;22266;52.340;4.962;2023-07-13T04:51:19;101382.91;;;17.37;75.78
36222;BME280;22266;52.340;4.962;2023-07-13T04:53:45;101381.03;;;17.37;75.06
36222;BME280;22266;52.340;4.962;2023-07-13T04:56:12;101384.81;;;17.36;75.48
36222;BME280;22266;52.340;4.962;2023-07-13T04:58:39;101387.78;;;17.35;75.39
36222;BME280;22266;52.340;4.962;2023-07-13T05:01:06;101387.16;;;17.33;75.66
36222;BME280;22266;52.340;4.962;2023-07-13T05:03:34;101392.16;;;17.36;75.79
36222;BME280;22266;52.340;4.962;2023-07-13T05:06:03;101394.03;;;17.35;75.70
36222;BME280;22266;52.340;4.962;2023-07-13T05:08:30;101394.25;;;17.34;75.89
36222;BME280;22266;52.340;4.962;2023-07-13T05:11:00;101392.38;;;17.34;75.75
36222;BME280;22266;52.340;4.962;2023-07-13T05:13:26;101393.03;;;17.29;75.72
36222;BME280;22266;52.340;4.962;2023-07-13T05:16:01;101400.38;;;17.29;75.78
36222;BME280;22266;52.340;4.962;2023-07-13T05:18:29;101401.44;;;17.28;76.25
36222;BME280;22266;52.340;4.962;2023-07-13T05:21:07;101396.16;;;17.33;75.94
36222;BME280;22266;52.340;4.962;2023-07-13T05:23:35;101406.19;;;17.33;75.94
36222;BME280;22266;52.340;4.962;2023-07-13T05:26:03;101412.25;;;17.35;76.21
36222;BME280;22266;52.340;4.962;2023-07-13T05:28:35;101409.53;;;17.35;76.46
36222;BME280;22266;52.340;4.962;2023-07-13T05:31:02;101411.44;;;17.34;76.39
36222;BME280;22266;52.340;4.962;2023-07-13T05:33:28;101412.84;;;17.37;76.70
36222;BME280;22266;52.340;4.962;2023-07-13T05:35:55;101414.44;;;17.44;76.99
36222;BME280;22266;52.340;4.962;2023-07-13T05:38:21;101419.84;;;17.51;77.12
36222;BME280;22266;52.340;4.962;2023-07-13T05:40:49;101416.97;;;17.64;77.13
36222;BME280;22266;52.340;4.962;2023-07-13T05:43:16;101416.00;;;17.77;76.99
36222;BME280;22266;52.340;4.962;2023-07-13T05:45:42;101411.44;;;17.89;76.65
36222;BME280;22266;52.340;4.962;2023-07-13T05:48:09;101410.75;;;17.94;76.27
36222;BME280;22266;52.340;4.962;2023-07-13T05:50:35;101420.31;;;18.03;76.32
36222;BME280;22266;52.340;4.962;2023-07-13T05:53:02;101413.78;;;18.04;76.14
36222;BME280;22266;52.340;4.962;2023-07-13T05:55:29;101418.47;;;18.15;76.21
36222;BME280;22266;52.340;4.962;2023-07-13T05:57:55;101425.38;;;18.29;75.83
36222;BME280;22266;52.340;4.962;2023-07-13T06:00:25;101427.31;;;18.41;75.29
36222;BME280;22266;52.340;4.962;2023-07-13T06:02:51;101430.78;;;18.48;75.27
36222;BME280;22266;52.340;4.962;2023-07-13T06:05:18;101430.91;;;18.53;74.89
36222;BME280;22266;52.340;4.962;2023-07-13T06:07:45;101427.81;;;18.49;74.88
36222;BME280;22266;52.340;4.962;2023-07-13T06:10:11;101437.44;;;18.52;75.26
36222;BME280;22266;52.340;4.962;2023-07-13T06:12:38;101438.03;;;18.54;75.36
36222;BME280;22266;52.340;4.962;2023-07-13T06:15:05;101436.72;;;18.57;75.29
36222;BME280;22266;52.340;4.962;2023-07-13T06:17:31;101439.00;;;18.60;74.95
36222;BME280;22266;52.340;4.962;2023-07-13T06:19:58;101432.69;;;18.59;75.01
36222;BME280;22266;52.340;4.962;2023-07-13T06:22:24;101439.66;;;18.55;75.08
36222;BME280;22266;52.340;4.962;2023-07-13T06:24:51;101436.13;;;18.54;75.10
36222;BME280;22266;52.340;4.962;2023-07-13T06:27:18;101444.09;;;18.56;75.11
36222;BME280;22266;52.340;4.962;2023-07-13T06:29:45;101442.78;;;18.59;75.21
36222;BME280;22266;52.340;4.962;2023-07-13T06:32:11;101443.25;;;18.56;74.83
36222;BME280;22266;52.340;4.962;2023-07-13T06:34:38;101446.19;;;18.54;75.17
36222;BME280;22266;52.340;4.962;2023-07-13T06:37:08;101442.06;;;18.51;74.71
36222;BME280;22266;52.340;4.962;2023-07-13T06:39:35;101444.41;;;18.48;74.91
36222;BME280;22266;52.340;4.962;2023-07-13T06:42:02;101447.34;;;18.46;74.46
36222;BME280;22266;52.340;4.962;2023-07-13T06:44:28;101449.38;;;18.39;74.29
36222;BME280;22266;52.340;4.962;2023-07-13T06:46:55;101449.44;;;18.33;73.98
36222;BME280;22266;52.340;4.962;2023-07-13T06:49:21;101450.72;;;18.30;73.92
36222;BME280;22266;52.340;4.962;2023-07-13T06:51:48;101450.97;;;18.28;73.86
36222;BME280;22266;52.340;4.962;2023-07-13T06:54:14;101457.25;;;18.29;73.35
36222;BME280;22266;52.340;4.962;2023-07-13T06:56:41;101455.97;;;18.32;73.20
36222;BME280;22266;52.340;4.962;2023-07-13T06:59:08;101462.63;;;18.36;72.95
36222;BME280;22266;52.340;4.962;2023-07-13T07:01:34;101469.28;;;18.40;72.78
36222;BME280;22266;52.340;4.962;2023-07-13T07:04:01;101470.09;;;18.40;72.08
36222;BME280;22266;52.340;4.962;2023-07-13T07:06:27;101468.59;;;18.44;71.89
36222;BME280;22266;52.340;4.962;2023-07-13T07:08:54;101464.91;;;18.50;71.21
36222;BME280;22266;52.340;4.962;2023-07-13T07:11:25;101479.75;;;18.54;71.26
36222;BME280;22266;52.340;4.962;2023-07-13T07:13:52;101475.72;;;18.57;70.94
36222;BME280;22266;52.340;4.962;2023-07-13T07:16:20;101493.88;;;18.63;70.88
36222;BME280;22266;52.340;4.962;2023-07-13T07:18:47;101483.34;;;18.67;70.87
36222;BME280;22266;52.340;4.962;2023-07-13T07:21:14;101488.38;;;18.70;70.35
36222;BME280;22266;52.340;4.962;2023-07-13T07:23:42;101489.63;;;18.67;69.91
36222;BME280;22266;52.340;4.962;2023-07-13T07:26:09;101490.09;;;18.64;69.62
36222;BME280;22266;52.340;4.962;2023-07-13T07:28:36;101498.75;;;18.61;69.47
36222;BME280;22266;52.340;4.962;2023-07-13T07:31:06;101493.06;;;18.63;69.58
36222;BME280;22266;52.340;4.962;2023-07-13T07:33:35;101500.47;;;18.74;69.09
36222;BME280;22266;52.340;4.962;2023-07-13T07:36:02;101495.84;;;18.74;69.05
36222;BME280;22266;52.340;4.962;2023-07-13T07:38:32;101493.75;;;18.76;68.91
36222;BME280;22266;52.340;4.962;2023-07-13T07:41:02;101501.31;;;18.74;69.22
36222;BME280;22266;52.340;4.962;2023-07-13T07:43:32;101489.31;;;18.75;69.15
36222;BME280;22266;52.340;4.962;2023-07-13T07:45:59;101496.22;;;18.78;69.31
36222;BME280;22266;52.340;4.962;2023-07-13T07:48:28;101494.00;;;18.87;69.47
36222;BME280;22266;52.340;4.962;2023-07-13T07:50:55;101501.72;;;18.90;68.31
36222;BME280;22266;52.340;4.962;2023-07-13T07:53:21;101503.38;;;18.91;68.51
36222;BME280;22266;52.340;4.962;2023-07-13T07:55:49;101503.00;;;18.87;68.15
36222;BME280;22266;52.340;4.962;2023-07-13T07:58:18;101495.31;;;18.84;68.54
36222;BME280;22266;52.340;4.962;2023-07-13T08:01:05;101499.91;;;18.84;68.44
36222;BME280;22266;52.340;4.962;2023-07-13T08:03:35;101501.59;;;18.85;68.63
36222;BME280;22266;52.340;4.962;2023-07-13T08:06:04;101498.63;;;18.86;68.50
36222;BME280;22266;52.340;4.962;2023-07-13T08:08:34;101497.91;;;18.91;68.38
36222;BME280;22266;52.340;4.962;2023-07-13T08:11:06;101486.53;;;18.94;68.42
36222;BME280;22266;52.340;4.962;2023-07-13T08:13:36;101494.47;;;18.95;68.06
36222;BME280;22266;52.340;4.962;2023-07-13T08:16:04;101491.16;;;18.93;67.97
36222;BME280;22266;52.340;4.962;2023-07-13T08:18:32;101496.25;;;18.90;67.37
36222;BME280;22266;52.340;4.962;2023-07-13T08:21:03;101491.88;;;18.89;66.67
36222;BME280;22266;52.340;4.962;2023-07-13T08:23:30;101495.19;;;18.91;66.68
36222;BME280;22266;52.340;4.962;2023-07-13T08:25:59;101489.88;;;18.96;66.69
36222;BME280;22266;52.340;4.962;2023-07-13T08:28:27;101493.19;;;18.98;66.92
36222;BME280;22266;52.340;4.962;2023-07-13T08:30:54;101497.00;;;18.97;66.82
36222;BME280;22266;52.340;4.962;2023-07-13T08:33:22;101500.78;;;18.96;66.08
36222;BME280;22266;52.340;4.962;2023-07-13T08:35:52;101504.34;;;18.96;65.78
36222;BME280;22266;52.340;4.962;2023-07-13T08:38:18;101497.91;;;18.91;64.26
36222;BME280;22266;52.340;4.962;2023-07-13T08:40:50;101510.97;;;18.89;63.90
36222;BME280;22266;52.340;4.962;2023-07-13T08:43:21;101512.63;;;18.90;64.03
36222;BME280;22266;52.340;4.962;2023-07-13T08:45:53;101510.47;;;18.92;64.34
36222;BME280;22266;52.340;4.962;2023-07-13T08:48:31;101513.56;;;18.95;65.11
36222;BME280;22266;52.340;4.962;2023-07-13T08:54:15;101524.66;;;19.00;63.55
36222;BME280;22266;52.340;4.962;2023-07-13T08:56:45;101518.97;;;19.14;63.63
36222;BME280;22266;52.340;4.962;2023-07-13T08:59:16;101521.25;;;19.29;63.62
36222;BME280;22266;52.340;4.962;2023-07-13T09:02:18;101522.91;;;19.30;63.15
36222;BME280;22266;52.340;4.962;2023-07-13T09:04:52;101529.44;;;19.29;63.18
36222;BME280;22266;52.340;4.962;2023-07-13T09:07:30;101525.41;;;19.31;63.01
36222;BME280;22266;52.340;4.962;2023-07-13T09:10:15;101521.38;;;19.34;63.04
36222;BME280;22266;52.340;4.962;2023-07-13T09:15:27;101526.13;;;19.38;61.12
36222;BME280;22266;52.340;4.962;2023-07-13T09:20:40;101530.41;;;19.46;60.96
36222;BME280;22266;52.340;4.962;2023-07-13T09:23:14;101529.22;;;19.54;61.07
36222;BME280;22266;52.340;4.962;2023-07-13T09:25:42;101541.81;;;19.55;61.32
36222;BME280;22266;52.340;4.962;2023-07-13T09:28:24;101542.28;;;19.51;61.45
36222;BME280;22266;52.340;4.962;2023-07-13T09:30:58;101540.97;;;19.42;61.26
36222;BME280;22266;52.340;4.962;2023-07-13T09:33:27;101547.34;;;19.36;61.02
36222;BME280;22266;52.340;4.962;2023-07-13T09:35:56;101548.31;;;19.42;61.15
36222;BME280;22266;52.340;4.962;2023-07-13T09:38:27;101540.97;;;19.42;61.36
36222;BME280;22266;52.340;4.962;2023-07-13T09:41:15;101552.72;;;19.43;61.11
36222;BME280;22266;52.340;4.962;2023-07-13T09:47:30;101553.53;;;19.43;61.01
36222;BME280;22266;52.340;4.962;2023-07-13T09:50:02;101561.50;;;19.45;60.72
36222;BME280;22266;52.340;4.962;2023-07-13T09:52:41;101557.47;;;19.47;60.63
36222;BME280;22266;52.340;4.962;2023-07-13T09:55:35;101565.09;;;19.57;60.38
36222;BME280;22266;52.340;4.962;2023-07-13T10:00:38;101570.59;;;19.69;59.01
36222;BME280;22266;52.340;4.962;2023-07-13T10:03:27;101568.09;;;19.79;59.25
36222;BME280;22266;52.340;4.962;2023-07-13T10:06:03;101559.78;;;19.86;58.56
36222;BME280;22266;52.340;4.962;2023-07-13T10:08:35;101570.19;;;19.89;58.45
36222;BME280;22266;52.340;4.962;2023-07-13T10:11:21;101558.91;;;19.97;58.89
36222;BME280;22266;52.340;4.962;2023-07-13T10:13:56;101566.28;;;20.08;58.64
36222;BME280;22266;52.340;4.962;2023-07-13T10:16:31;101588.38;;;20.18;58.95
36222;BME280;22266;52.340;4.962;2023-07-13T10:19:02;101582.44;;;20.10;57.73
36222;BME280;22266;52.340;4.962;2023-07-13T10:21:36;101582.78;;;20.13;58.28
36222;BME280;22266;52.340;4.962;2023-07-13T10:24:17;101588.94;;;20.20;58.22
36222;BME280;22266;52.340;4.962;2023-07-13T10:26:49;101594.31;;;20.27;58.23
36222;BME280;22266;52.340;4.962;2023-07-13T10:29:19;101601.69;;;20.27;58.21
36222;BME280;22266;52.340;4.962;2023-07-13T10:31:47;101590.84;;;20.20;58.10
36222;BME280;22266;52.340;4.962;2023-07-13T10:34:14;101593.97;;;20.12;57.53
36222;BME280;22266;52.340;4.962;2023-07-13T10:36:44;101595.88;;;19.99;57.54
36222;BME280;22266;52.340;4.962;2023-07-13T10:39:18;101596.84;;;19.93;57.88
36222;BME280;22266;52.340;4.962;2023-07-13T10:41:50;101600.50;;;19.87;57.71
36222;BME280;22266;52.340;4.962;2023-07-13T10:44:26;101603.13;;;19.82;57.81
36222;BME280;22266;52.340;4.962;2023-07-13T10:46:58;101601.34;;;19.88;57.96
36222;BME280;22266;52.340;4.962;2023-07-13T10:49:28;101614.53;;;20.03;58.42
36222;BME280;22266;52.340;4.962;2023-07-13T10:51:55;101614.63;;;20.08;58.45
36222;BME280;22266;52.340;4.962;2023-07-13T10:54:32;101619.03;;;20.09;58.00
36222;BME280;22266;52.340;4.962;2023-07-13T10:57:14;101624.13;;;20.05;57.79
36222;BME280;22266;52.340;4.962;2023-07-13T10:59:46;101616.91;;;19.99;57.75
36222;BME280;22266;52.340;4.962;2023-07-13T11:02:28;101617.72;;;19.88;57.64
36222;BME280;22266;52.340;4.962;2023-07-13T11:04:56;101634.47;;;19.80;57.71
36222;BME280;22266;52.340;4.962;2023-07-13T11:07:30;101622.38;;;19.87;57.93
36222;BME280;22266;52.340;4.962;2023-07-13T11:10:00;101617.16;;;19.97;58.23
36222;BME280;22266;52.340;4.962;2023-07-13T11:12:51;101627.84;;;20.11;57.77
36222;BME280;22266;52.340;4.962;2023-07-13T11:15:32;101628.41;;;20.24;57.20
36222;BME280;22266;52.340;4.962;2023-07-13T11:18:03;101631.84;;;20.32;57.28
36222;BME280;22266;52.340;4.962;2023-07-13T11:20:37;101632.91;;;20.42;56.70
36222;BME280;22266;52.340;4.962;2023-07-13T11:25:40;101628.63;;;20.46;56.34
36222;BME280;22266;52.340;4.962;2023-07-13T11:30:38;101633.25;;;20.58;56.18
36222;BME280;22266;52.340;4.962;2023-07-13T11:33:22;101627.56;;;20.59;55.78
36222;BME280;22266;52.340;4.962;2023-07-13T11:38:21;101636.47;;;20.66;55.52
36222;BME280;22266;52.340;4.962;2023-07-13T11:40:53;101635.88;;;20.64;54.91
36222;BME280;22266;52.340;4.962;2023-07-13T11:43:22;101638.84;;;20.63;55.17
36222;BME280;22266;52.340;4.962;2023-07-13T11:45:52;101637.66;;;20.70;55.38
36222;BME280;22266;52.340;4.962;2023-07-13T11:48:26;101639.50;;;20.82;56.10
36222;BME280;22266;52.340;4.962;2023-07-13T11:51:00;101645.56;;;20.84;55.35
36222;BME280;22266;52.340;4.962;2023-07-13T11:53:37;101640.81;;;20.79;55.56
36222;BME280;22266;52.340;4.962;2023-07-13T11:56:06;101652.81;;;20.78;55.94
36222;BME280;22266;52.340;4.962;2023-07-13T11:58:33;101649.13;;;20.84;55.21
36222;BME280;22266;52.340;4.962;2023-07-13T12:01:01;101641.28;;;20.88;55.18
36222;BME280;22266;52.340;4.962;2023-07-13T12:03:33;101647.31;;;20.90;55.05
36222;BME280;22266;52.340;4.962;2023-07-13T12:06:21;101641.22;;;20.99;55.38
36222;BME280;22266;52.340;4.962;2023-07-13T12:08:49;101647.41;;;21.07;55.84
36222;BME280;22266;52.340;4.962;2023-07-13T12:11:17;101640.50;;;21.04;55.21
36222;BME280;22266;52.340;4.962;2023-07-13T12:13:46;101636.09;;;21.03;55.20
36222;BME280;22266;52.340;4.962;2023-07-13T12:16:28;101632.84;;;21.06;55.37
36222;BME280;22266;52.340;4.962;2023-07-13T12:18:56;101647.06;;;21.03;55.92
36222;BME280;22266;52.340;4.962;2023-07-13T12:21:32;101642.41;;;21.04;55.86
36222;BME280;22266;52.340;4.962;2023-07-13T12:24:00;101638.31;;;21.06;56.39
36222;BME280;22266;52.340;4.962;2023-07-13T12:26:29;101661.66;;;21.09;56.24
36222;BME280;22266;52.340;4.962;2023-07-13T12:29:00;101644.06;;;21.05;55.59
36222;BME280;22266;52.340;4.962;2023-07-13T12:31:34;101647.88;;;21.04;55.55
36222;BME280;22266;52.340;4.962;2023-07-13T12:34:18;101650.97;;;21.07;55.89
36222;BME280;22266;52.340;4.962;2023-07-13T12:36:54;101648.88;;;21.14;56.20
36222;BME280;22266;52.340;4.962;2023-07-13T12:39:31;101642.44;;;21.20;55.90
36222;BME280;22266;52.340;4.962;2023-07-13T12:44:41;101648.75;;;21.21;55.96
36222;BME280;22266;52.340;4.962;2023-07-13T12:47:12;101654.63;;;21.13;55.80
36222;BME280;22266;52.340;4.962;2023-07-13T12:49:47;101642.88;;;21.01;55.55
36222;BME280;22266;52.340;4.962;2023-07-13T12:52:17;101650.34;;;21.05;55.71
36222;BME280;22266;52.340;4.962;2023-07-13T12:54:54;101650.34;;;21.05;55.72
36222;BME280;22266;52.340;4.962;2023-07-13T12:57:32;101645.84;;;21.11;55.21
36222;BME280;22266;52.340;4.962;2023-07-13T12:59:58;101647.13;;;21.08;54.95
36222;BME280;22266;52.340;4.962;2023-07-13T13:02:33;101660.22;;;21.06;55.70
36222;BME280;22266;52.340;4.962;2023-07-13T13:05:03;101658.97;;;20.97;55.31
36222;BME280;22266;52.340;4.962;2023-07-13T13:07:30;101664.31;;;21.04;55.73
36222;BME280;22266;52.340;4.962;2023-07-13T13:09:57;101658.19;;;21.13;55.42
36222;BME280;22266;52.340;4.962;2023-07-13T13:12:24;101660.53;;;21.21;55.46
36222;BME280;22266;52.340;4.962;2023-07-13T13:14:52;101655.47;;;21.30;55.73
36222;BME280;22266;52.340;4.962;2023-07-13T13:17:25;101659.41;;;21.34;55.06
36222;BME280;22266;52.340;4.962;2023-07-13T13:19:54;101663.13;;;21.28;54.54
36222;BME280;22266;52.340;4.962;2023-07-13T13:22:21;101671.91;;;21.30;54.67
36222;BME280;22266;52.340;4.962;2023-07-13T13:24:48;101664.66;;;21.36;54.62
36222;BME280;22266;52.340;4.962;2023-07-13T13:27:16;101674.72;;;21.47;54.39